47CO weather

Mile Hi Airport
New Raymer, Colorado, United States

Public forecast

Using degrees Fahrenheit for public forecast. Weather courtesy of forecast.io.

Closest aviation weather report (METAR) to Mile Hi Airport

Closest report is Cheyenne Regional Jerry Olson Field, 15.4 nm (28.5 km) N. Retrieved 2019/10/19 17:53 UTC (30 minutes ago):

KCYS 191753Z 26024G33KT 10SM CLR 12/M10 A2987 RMK AO2 PK WND 27038/1719 SLP082 T01171100 10117 21028 58014

Closest aviation forecast (TAF) to Mile Hi Airport

Closest forecast is Cheyenne Regional Jerry Olson Field, 15.4 nm (28.5 km) N. Retrieved 2019/10/19 18:22 UTC (52 seconds ago):

TAF KCYS 191720Z 1918/2018 27022G35KT P6SM SCT150 FM200000 21010KT P6SM BKN120 FM200800 28025G38KT P6SM SCT080 BKN120